E/V Nautilus — J8B3605 — position and weather

sailwx.info

Track history (hours):
 
Tides and Currents Weather Stations Pressure Air Temp Water Temp Dewpoint Dewpoint Depression Visibility Wind Speed Wind Dir Waves Ship Positions

Oceanographic research ship E/V Nautilus (St Vincent and the Grenadines)

Ship's website: http://www.nautiluslive.org

Last reported at 2018-Jun-19 04:11 UTC. Time now 2018-Jun-21 14:12 UTC.
Position N 41°54' W 124°50'.

; draft 5 m.

Type: Other ship. MMSI: 376404000.

Date/timePositionNaut miles runAvg speedWind from/ knotsBaromVisibWave heightAir tempDewpointWater temp
2018-Jun-19 04:11N 41°54' W 124°50'0 0.3
2018-Jun-19 03:44N 41°54' W 124°50'0 0.4
2018-Jun-19 03:28N 41°54' W 124°51'0 0.1
2018-Jun-19 02:47N 41°54' W 124°51'0 0.1
2018-Jun-19 01:54N 41°54' W 124°51'0 0.1
2018-Jun-19 01:24N 41°54' W 124°51'0 0.2
2018-Jun-19 00:52N 41°54' W 124°51'200 5.2
2018-Jun-17 10:10N 38°40' W 123°45'4 9.1
2018-Jun-17 09:42N 38°37' W 123°42'3 8.8
2018-Jun-17 09:22N 38°34' W 123°40'3 8.7
2018-Jun-17 09:00N 38°32' W 123°38'4 8.7
2018-Jun-17 08:30N 38°28' W 123°35'4 8.4
2018-Jun-17 08:00N 38°24' W 123°32'4 8.5
2018-Jun-17 07:30N 38°21' W 123°29'4 8.0
2018-Jun-17 07:00N 38°17' W 123°26'4 7.9
2018-Jun-17 06:30N 38°14' W 123°24'4 7.7
2018-Jun-17 06:00N 38°11' W 123°21'4 7.9
2018-Jun-17 05:30N 38°08' W 123°18'4 8.7
2018-Jun-17 05:00N 38°04' W 123°14'4 8.7
2018-Jun-17 04:30N 38°01' W 123°11'5 9.3
2018-Jun-17 04:00N 37°58' W 123°06'510.0
2018-Jun-17 03:30N 37°55' W 123°01'510.0
2018-Jun-17 03:00N 37°53' W 122°55'510.3
2018-Jun-17 02:30N 37°50' W 122°50'610.8
2018-Jun-17 01:58N 37°47' W 122°43'4 9.4
2018-Jun-17 01:30N 37°46' W 122°38'611.9
2018-Jun-17 01:00N 37°48' W 122°31'611.5
2018-Jun-17 00:30N 37°49' W 122°24'611.1
2018-Jun-17 00:00N 37°45' W 122°20'0 0.3
2018-Jun-16 23:28N 37°45' W 122°20'0 0.0
2018-Jun-16 22:58N 37°45' W 122°20'0 0.1
2018-Jun-16 22:28N 37°45' W 122°20'0 0.0
2018-Jun-16 21:58N 37°45' W 122°20'0 0.0
2018-Jun-16 21:28N 37°45' W 122°20'0 0.0
2018-Jun-16 20:58N 37°45' W 122°20'0 0.0
2018-Jun-16 20:28N 37°45' W 122°20'0 0.0
2018-Jun-16 19:58N 37°45' W 122°20'0 0.1
2018-Jun-16 19:28N 37°45' W 122°20'0 0.1
2018-Jun-16 18:58N 37°45' W 122°20'0 0.0
2018-Jun-16 18:28N 37°45' W 122°20'0 0.0
2018-Jun-16 17:58N 37°45' W 122°20'0 0.0
2018-Jun-16 17:28N 37°45' W 122°20'0 0.0
2018-Jun-16 16:58N 37°45' W 122°20'0 0.0
2018-Jun-16 16:28N 37°45' W 122°20'0 0.0
2018-Jun-16 15:58N 37°45' W 122°20'0 0.0
2018-Jun-16 15:28N 37°45' W 122°20'0 0.0
2018-Jun-16 14:58N 37°45' W 122°20'0 0.0
2018-Jun-16 14:28N 37°45' W 122°20'0 0.0
2018-Jun-16 13:58N 37°45' W 122°20'0 0.0
2018-Jun-16 13:28N 37°45' W 122°20'0 0.0
2018-Jun-16 12:58N 37°45' W 122°20'0 0.0
2018-Jun-16 12:28N 37°45' W 122°20'0 0.0
2018-Jun-16 11:58N 37°45' W 122°20'0 0.0
2018-Jun-16 11:22N 37°45' W 122°20'0 0.0
2018-Jun-16 10:58N 37°45' W 122°20'0 0.0
2018-Jun-16 10:28N 37°45' W 122°20'0 0.0
2018-Jun-16 09:58N 37°45' W 122°20'0 0.0
2018-Jun-16 09:28N 37°45' W 122°20'0 0.0
2018-Jun-16 08:58N 37°45' W 122°20'0 0.0
2018-Jun-16 08:28N 37°45' W 122°20'0 0.0
2018-Jun-16 07:58N 37°45' W 122°20'0 0.0
2018-Jun-16 07:28N 37°45' W 122°20'0 0.0
2018-Jun-16 06:58N 37°45' W 122°20'0 0.0
2018-Jun-16 06:28N 37°45' W 122°20'0 0.0
2018-Jun-16 05:58N 37°45' W 122°20'0 0.0
2018-Jun-16 05:28N 37°45' W 122°20'0 0.0
2018-Jun-16 04:58N 37°45' W 122°20'0 0.1
2018-Jun-16 04:28N 37°45' W 122°20'0 0.1
2018-Jun-16 03:58N 37°45' W 122°20'0 0.1
2018-Jun-16 03:28N 37°45' W 122°20'0 0.0
2018-Jun-16 02:58N 37°45' W 122°20'0 0.0
2018-Jun-16 02:28N 37°45' W 122°20'0 0.0
2018-Jun-16 01:58N 37°45' W 122°20'0 0.0
2018-Jun-16 01:28N 37°45' W 122°20'0 0.0
2018-Jun-16 00:58N 37°45' W 122°20'0 0.0
2018-Jun-16 00:28N 37°45' W 122°20'0 0.0
2018-Jun-15 23:58N 37°45' W 122°20'0 0.1
2018-Jun-15 23:31N 37°45' W 122°20'0 0.0
2018-Jun-15 23:00N 37°45' W 122°20'0 0.1
2018-Jun-15 22:30N 37°45' W 122°20'0 0.1
2018-Jun-15 22:00N 37°45' W 122°20'0 0.1
2018-Jun-15 21:30N 37°45' W 122°20'0 0.0
2018-Jun-15 21:00N 37°45' W 122°20'0 0.0
2018-Jun-15 20:30N 37°45' W 122°20'0 0.0
2018-Jun-15 20:00N 37°45' W 122°20'0 0.0
2018-Jun-15 19:30N 37°45' W 122°20'0 0.0
2018-Jun-15 19:01N 37°45' W 122°20'0 0.0
2018-Jun-15 18:27N 37°45' W 122°20'0 0.0
2018-Jun-15 18:00N 37°45' W 122°20'0 0.0
2018-Jun-15 17:27N 37°45' W 122°20'0 0.0
2018-Jun-15 16:57N 37°45' W 122°20'0 0.0
2018-Jun-15 16:30N 37°45' W 122°20'0 0.1
2018-Jun-15 15:57N 37°45' W 122°20'0 0.0
2018-Jun-15 15:27N 37°45' W 122°20'0 0.0
2018-Jun-15 14:48N 37°45' W 122°20'0 0.0
2018-Jun-15 14:27N 37°45' W 122°20'0 0.0
2018-Jun-15 14:00N 37°45' W 122°20'0 0.0
2018-Jun-15 13:21N 37°45' W 122°20'0 0.0
2018-Jun-15 12:45N 37°45' W 122°20'0 0.0
2018-Jun-15 12:27N 37°45' W 122°20'0 0.0
2018-Jun-15 12:00N 37°45' W 122°20'0 0.0
2018-Jun-15 11:27N 37°45' W 122°20'0 0.0
2018-Jun-15 10:51N 37°45' W 122°20'0 0.0
2018-Jun-15 10:30N 37°45' W 122°20'0 0.0
2018-Jun-15 10:00N 37°45' W 122°20'0 0.0
2018-Jun-15 09:30N 37°45' W 122°20'0 0.0
2018-Jun-15 09:00N 37°45' W 122°20'0 0.0
2018-Jun-15 08:27N 37°45' W 122°20'0 0.1
2018-Jun-15 08:00N 37°45' W 122°20'0 0.0
2018-Jun-15 07:30N 37°45' W 122°20'0 0.0
2018-Jun-15 07:00N 37°45' W 122°20'0 0.1
2018-Jun-15 06:30N 37°45' W 122°20'4 8.1
2018-Jun-15 06:00N 37°48' W 122°23'510.9
2018-Jun-15 05:30N 37°53' W 122°26'5 9.4
2018-Jun-15 04:57N 37°58' W 122°26'510.4
2018-Jun-15 04:30N 38°02' W 122°22'611.3
2018-Jun-15 04:00N 38°04' W 122°15'2 0.1
2018-Jun-14 14:17N 38°05' W 122°15'1 4.3
2018-Jun-14 13:58N 38°04' W 122°15'4 8.5
2018-Jun-14 13:29N 38°03' W 122°20'5 8.8
2018-Jun-14 12:59N 38°01' W 122°24'4 7.8
2018-Jun-14 12:28N 37°57' W 122°27'4 7.9
2018-Jun-14 12:00N 37°53' W 122°26'510.5
2018-Jun-14 11:30N 37°49' W 122°23'713.3
2018-Jun-14 11:00N 37°43' W 122°20'1 0.9
2018-Jun-14 10:06N 37°42' W 122°19'0 0.0
2018-Jun-14 09:57N 37°42' W 122°19'0 0.0
2018-Jun-14 09:27N 37°42' W 122°19'0 0.2
2018-Jun-14 08:57N 37°42' W 122°19'0 0.0
2018-Jun-14 07:57N 37°42' W 122°19'0 0.0
2018-Jun-14 07:24N 37°42' W 122°19'0 0.0
2018-Jun-14 06:51N 37°42' W 122°19'0 0.0
2018-Jun-14 06:27N 37°42' W 122°19'0 0.0
2018-Jun-14 05:57N 37°42' W 122°19'0 0.0
2018-Jun-14 05:30N 37°42' W 122°19'0 0.0
2018-Jun-14 05:00N 37°42' W 122°19'0 0.0
2018-Jun-14 04:27N 37°42' W 122°19'0 0.0
2018-Jun-14 04:00N 37°42' W 122°19'0 0.0
2018-Jun-14 03:27N 37°42' W 122°19'0 0.0
2018-Jun-14 02:57N 37°42' W 122°19'0 0.0
2018-Jun-14 02:27N 37°42' W 122°19'0 0.0
2018-Jun-14 01:54N 37°42' W 122°19'0 0.0
2018-Jun-14 01:24N 37°42' W 122°19'0 0.1
2018-Jun-14 00:57N 37°42' W 122°19'0 0.0
2018-Jun-14 00:30N 37°42' W 122°19'0 0.0
2018-Jun-14 00:00N 37°42' W 122°19'0 0.1
2018-Jun-13 23:27N 37°42' W 122°19'0 0.0
2018-Jun-13 22:42N 37°42' W 122°19'0 0.0
2018-Jun-13 22:27N 37°42' W 122°19'0 0.1
2018-Jun-13 22:00N 37°42' W 122°19'0 0.0
2018-Jun-13 21:22N 37°42' W 122°19'0 0.1
2018-Jun-13 20:58N 37°42' W 122°19'0 0.1
2018-Jun-13 20:28N 37°42' W 122°19'0 0.0
2018-Jun-13 19:58N 37°42' W 122°19'0 0.0
2018-Jun-13 19:28N 37°42' W 122°19'0 0.0
2018-Jun-13 18:58N 37°42' W 122°19'0 0.0
2018-Jun-13 18:28N 37°42' W 122°19'0 0.1
2018-Jun-13 17:55N 37°42' W 122°19'0 0.1
2018-Jun-13 17:28N 37°42' W 122°19'0 0.0
2018-Jun-13 16:55N 37°42' W 122°19'0 0.0
2018-Jun-13 16:25N 37°42' W 122°19'0 0.0
2018-Jun-13 15:58N 37°42' W 122°19'0 0.0
2018-Jun-13 15:10N 37°42' W 122°19'0 0.0
2018-Jun-13 14:55N 37°42' W 122°19'0 0.0
2018-Jun-13 14:28N 37°42' W 122°19'0 0.0
2018-Jun-13 13:34N 37°42' W 122°19'0 0.0
2018-Jun-13 13:19N 37°42' W 122°19'0 0.0
2018-Jun-13 12:58N 37°42' W 122°19'0 0.0
2018-Jun-13 12:31N 37°42' W 122°19'0 0.0
2018-Jun-13 11:58N 37°42' W 122°19'0 0.0
2018-Jun-13 11:31N 37°42' W 122°19'0 0.0
2018-Jun-13 11:01N 37°42' W 122°19'0 0.0
2018-Jun-13 10:30N 37°42' W 122°19'0 0.0
2018-Jun-13 10:00N 37°42' W 122°19'0 0.0
2018-Jun-13 09:21N 37°42' W 122°19'0 0.0
2018-Jun-13 08:57N 37°42' W 122°19'0 0.0
2018-Jun-13 08:21N 37°42' W 122°19'0 0.0
2018-Jun-13 07:42N 37°42' W 122°19'0 0.0
2018-Jun-13 07:30N 37°42' W 122°19'0 0.1
2018-Jun-13 07:00N 37°42' W 122°19'0 0.1
2018-Jun-13 06:27N 37°42' W 122°19'0 0.0
2018-Jun-13 05:57N 37°42' W 122°19'0 0.0
2018-Jun-13 05:30N 37°42' W 122°19'0 0.0
2018-Jun-13 04:58N 37°42' W 122°19'0 0.0
2018-Jun-13 04:27N 37°42' W 122°19'0 0.1
2018-Jun-13 03:57N 37°42' W 122°19'0 0.0
2018-Jun-13 03:30N 37°42' W 122°19'0 0.0
2018-Jun-13 03:00N 37°42' W 122°19'0 0.0
2018-Jun-13 02:27N 37°42' W 122°19'0 0.0
2018-Jun-13 01:45N 37°42' W 122°19'0 0.0
2018-Jun-13 01:27N 37°42' W 122°19'0 0.0
2018-Jun-13 00:45N 37°42' W 122°19'0 0.1
2018-Jun-13 00:27N 37°42' W 122°19'0 0.1
2018-Jun-13 00:00N 37°42' W 122°19'0 0.0
2018-Jun-12 23:30N 37°42' W 122°19'0 0.0
2018-Jun-12 23:00N 37°42' W 122°19'0 0.0
2018-Jun-12 22:30N 37°42' W 122°19'0 0.0
2018-Jun-12 22:00N 37°42' W 122°19'0 0.0
2018-Jun-12 21:30N 37°42' W 122°19'0 0.0
2018-Jun-12 21:00N 37°42' W 122°19'0 0.1
2018-Jun-12 20:30N 37°42' W 122°19'0 0.0
2018-Jun-12 20:00N 37°42' W 122°19'0 0.0
2018-Jun-12 19:30N 37°42' W 122°19'0 0.0
2018-Jun-12 19:00N 37°42' W 122°19'0 0.1
2018-Jun-12 18:27N 37°42' W 122°19'0 0.1
2018-Jun-12 18:00N 37°42' W 122°19'0 0.0
2018-Jun-12 17:27N 37°42' W 122°19'0 0.1
2018-Jun-12 16:57N 37°42' W 122°19'0 0.0
2018-Jun-12 16:21N 37°42' W 122°19'0 0.0
2018-Jun-12 15:57N 37°42' W 122°19'0 0.0
2018-Jun-12 15:27N 37°42' W 122°19'0 0.1
2018-Jun-12 15:00N 37°42' W 122°19'0 0.1
2018-Jun-12 14:30N 37°42' W 122°19'0 0.0
2018-Jun-12 13:57N 37°42' W 122°19'0 0.0
2018-Jun-12 13:30N 37°42' W 122°19'0 0.0
2018-Jun-12 12:57N 37°42' W 122°19'0 0.0
2018-Jun-12 12:30N 37°42' W 122°19'0 0.0
2018-Jun-12 11:54N 37°42' W 122°19'0 0.0
2018-Jun-12 11:27N 37°42' W 122°19'0 0.0
2018-Jun-12 10:57N 37°42' W 122°19'0 0.0
2018-Jun-12 10:24N 37°42' W 122°19'0 0.0
2018-Jun-12 09:57N 37°42' W 122°19'0 0.0
2018-Jun-12 09:27N 37°42' W 122°19'0 0.0
2018-Jun-12 07:33N 37°42' W 122°19'0 0.0
2018-Jun-12 07:21N 37°42' W 122°19'0 0.0
2018-Jun-12 07:00N 37°42' W 122°19'0 0.0
2018-Jun-12 06:30N 37°42' W 122°19'0 0.0
2018-Jun-12 05:54N 37°42' W 122°19'0 0.0
2018-Jun-12 05:21N 37°42' W 122°19'0 0.0
2018-Jun-12 04:57N 37°42' W 122°19'0 0.0
2018-Jun-12 04:30N 37°42' W 122°19'0 0.0
2018-Jun-12 03:57N 37°42' W 122°19'0 0.0
2018-Jun-12 03:30N 37°42' W 122°19'0 0.0
2018-Jun-12 02:48N 37°42' W 122°19'0 0.0
2018-Jun-12 02:27N 37°42' W 122°19'0 0.0
2018-Jun-12 01:57N 37°42' W 122°19'0 0.0
2018-Jun-12 01:30N 37°42' W 122°19'0 0.0
2018-Jun-12 00:57N 37°42' W 122°19'0 0.0
2018-Jun-12 00:27N 37°42' W 122°19'0 0.0
2018-Jun-12 00:00N 37°42' W 122°19'0 0.0
2018-Jun-11 23:14N 37°42' W 122°19'0 0.2
2018-Jun-11 22:59N 37°42' W 122°19'0 0.0
2018-Jun-11 22:23N 37°42' W 122°19'0 0.0
2018-Jun-11 21:59N 37°42' W 122°19'0 0.0
2018-Jun-11 21:29N 37°42' W 122°19'0 0.0
2018-Jun-11 20:59N 37°42' W 122°19'0 0.1
2018-Jun-11 20:23N 37°42' W 122°19'0 0.0
2018-Jun-11 19:59N 37°42' W 122°19'0 0.1
2018-Jun-11 19:26N 37°42' W 122°19'0 0.0
2018-Jun-11 18:56N 37°42' W 122°19'0 0.0
2018-Jun-11 18:29N 37°42' W 122°19'0 0.0
2018-Jun-11 17:56N 37°42' W 122°19'0 0.0
2018-Jun-11 17:26N 37°42' W 122°19'0 0.0
2018-Jun-11 16:59N 37°42' W 122°19'0 0.0
2018-Jun-11 16:29N 37°42' W 122°19'0 0.0
2018-Jun-11 15:56N 37°42' W 122°19'0 0.0
2018-Jun-11 15:17N 37°42' W 122°19'0 0.0
2018-Jun-11 14:59N 37°42' W 122°19'0 0.0
2018-Jun-11 14:29N 37°42' W 122°19'0 0.0
2018-Jun-11 13:56N 37°42' W 122°19'0 0.0
2018-Jun-11 13:26N 37°42' W 122°19'0 0.0
2018-Jun-11 12:59N 37°42' W 122°19'0 0.0
2018-Jun-11 12:29N 37°42' W 122°19'0 0.0
2018-Jun-11 11:56N 37°42' W 122°19'0 0.0
2018-Jun-11 11:08N 37°42' W 122°19'0 0.0
2018-Jun-11 10:56N 37°42' W 122°19'0 0.0
2018-Jun-11 10:29N 37°42' W 122°19'0 0.0
2018-Jun-11 09:59N 37°42' W 122°19'0 0.0
2018-Jun-11 09:20N 37°42' W 122°19'0 0.0
2018-Jun-11 08:56N 37°42' W 122°19'0 0.0
2018-Jun-11 08:26N 37°42' W 122°19'0 0.0
2018-Jun-11 07:56N 37°42' W 122°19'0 0.0
2018-Jun-11 07:26N 37°42' W 122°19'0 0.0
2018-Jun-11 06:56N 37°42' W 122°19'0 0.1
2018-Jun-11 06:26N 37°42' W 122°19'0 0.0
2018-Jun-11 05:56N 37°42' W 122°19'0 0.0
2018-Jun-11 05:29N 37°42' W 122°19'0 0.0
2018-Jun-11 04:59N 37°42' W 122°19'0 0.0
2018-Jun-11 04:26N 37°42' W 122°19'0 0.0
2018-Jun-11 03:59N 37°42' W 122°19'0 0.0
2018-Jun-11 03:29N 37°42' W 122°19'0 0.0
2018-Jun-11 02:59N 37°42' W 122°19'0 0.0
2018-Jun-11 02:29N 37°42' W 122°19'0 0.0
2018-Jun-11 01:59N 37°42' W 122°19'0 0.0
2018-Jun-11 01:29N 37°42' W 122°19'0 0.0
2018-Jun-11 00:59N 37°42' W 122°19'0 0.0
2018-Jun-11 00:29N 37°42' W 122°19'0 0.0
2018-Jun-10 23:59N 37°42' W 122°19'0 0.1
2018-Jun-10 23:26N 37°42' W 122°19'0 0.0
2018-Jun-10 22:56N 37°42' W 122°19'0 0.1
2018-Jun-10 22:30N 37°42' W 122°19'1 2.4
2018-Jun-10 22:01N 37°43' W 122°19'5 9.7
2018-Jun-10 21:30N 37°48' W 122°22'5 9.6
2018-Jun-10 21:01N 37°52' W 122°25'611.5
2018-Jun-10 20:30N 37°57' W 122°27'611.2
2018-Jun-10 20:00N 38°02' W 122°22'510.2
2018-Jun-10 19:30N 38°04' W 122°16'2 3.6
2018-Jun-10 18:53N 38°06' W 122°16'0 0.3
2018-Jun-10 18:30N 38°06' W 122°16'0 0.0
2018-Jun-10 17:56N 38°06' W 122°16'0 0.1
2018-Jun-10 17:28N 38°06' W 122°16'0 0.1
2018-Jun-10 16:49N 38°06' W 122°16'1 1.7
2018-Jun-10 16:29N 38°05' W 122°15'2 4.2
2018-Jun-10 16:01N 38°04' W 122°17'610.8
2018-Jun-10 15:28N 38°01' W 122°23'511.1
2018-Jun-10 15:00N 37°57' W 122°27'4 8.9
2018-Jun-10 14:31N 37°53' W 122°25'9 8.8
2018-Jun-10 13:30N 37°47' W 122°34'510.5
2018-Jun-10 13:00N 37°45' W 122°40'3 6.5
2018-Jun-10 12:31N 37°42' W 122°40'3 5.9
2018-Jun-10 12:00N 37°39' W 122°39'3 5.8
2018-Jun-10 11:30N 37°36' W 122°39'3 5.4
2018-Jun-10 11:00N 37°33' W 122°39'3 6.0
2018-Jun-10 10:30N 37°30' W 122°39'3 5.7
2018-Jun-10 10:01N 37°27' W 122°39'3 5.7
2018-Jun-10 09:30N 37°25' W 122°39'3 5.8
2018-Jun-10 09:00N 37°22' W 122°39'3 6.2
2018-Jun-10 08:30N 37°18' W 122°39'3 5.6
2018-Jun-10 08:00N 37°16' W 122°39'3 5.9
2018-Jun-10 07:28N 37°13' W 122°36'1 2.0
2018-Jun-10 07:00N 37°13' W 122°36'1 1.5
2018-Jun-10 06:30N 37°13' W 122°36'1 1.4
2018-Jun-10 05:58N 37°14' W 122°36'0 0.9
2018-Jun-10 05:29N 37°14' W 122°36'0 0.6
2018-Jun-10 05:01N 37°15' W 122°37'0 0.3
2018-Jun-10 04:31N 37°15' W 122°37'0 0.6
2018-Jun-10 04:00N 37°15' W 122°37'0 0.8
2018-Jun-10 03:30N 37°15' W 122°37'3 5.5
2018-Jun-10 03:00N 37°13' W 122°37'4 8.2
2018-Jun-10 02:30N 37°08' W 122°36'117 8.2
2018-Jun-09 12:15N 35°24' W 121°33'2 7.3
2018-Jun-09 12:00N 35°22' W 121°32'4 7.3
2018-Jun-09 11:30N 35°19' W 121°29'4 7.4
2018-Jun-09 11:00N 35°16' W 121°27'4 7.3
2018-Jun-09 10:30N 35°13' W 121°25'4 7.6
2018-Jun-09 10:00N 35°09' W 121°22'4 7.3
2018-Jun-09 09:30N 35°06' W 121°20'3 6.1
2018-Jun-09 09:01N 35°04' W 121°18'3 6.3
2018-Jun-09 08:30N 35°01' W 121°16'3 6.7
2018-Jun-09 08:00N 34°58' W 121°14'3 6.9
2018-Jun-09 07:30N 34°55' W 121°12'4 7.2
2018-Jun-09 07:00N 34°52' W 121°10'4 7.7
2018-Jun-09 06:30N 34°49' W 121°08'4 7.7
2018-Jun-09 06:00N 34°45' W 121°05'4 7.6
2018-Jun-09 05:30N 34°42' W 121°03'4 7.4
2018-Jun-09 05:01N 34°39' W 121°00'4 7.4
2018-Jun-09 04:30N 34°36' W 120°58'  
Track history (hours):
 
Tides and Currents Weather Stations Pressure Air Temp Water Temp Dewpoint Dewpoint Depression Visibility Wind Speed Wind Dir Waves Ship Positions

Oceanographic research ship E/V Nautilus (St Vincent and the Grenadines)

Ship's website: http://www.nautiluslive.org

Last reported at 2018-Jun-19 04:11 UTC. Time now 2018-Jun-21 14:12 UTC.
Position N 41°54' W 124°50'.

; draft 5 m.

Type: Other ship. MMSI: 376404000.

Date/timePositionNaut miles runAvg speedWind from/ knotsBaromVisibWave heightAir tempDewpointWater temp
2018-Jun-19 04:11N 41°54' W 124°50'0 0.3
2018-Jun-19 03:44N 41°54' W 124°50'0 0.4
2018-Jun-19 03:28N 41°54' W 124°51'0 0.1
2018-Jun-19 02:47N 41°54' W 124°51'0 0.1
2018-Jun-19 01:54N 41°54' W 124°51'0 0.1
2018-Jun-19 01:24N 41°54' W 124°51'0 0.2
2018-Jun-19 00:52N 41°54' W 124°51'200 5.2
2018-Jun-17 10:10N 38°40' W 123°45'4 9.1
2018-Jun-17 09:42N 38°37' W 123°42'3 8.8
2018-Jun-17 09:22N 38°34' W 123°40'3 8.7
2018-Jun-17 09:00N 38°32' W 123°38'4 8.7
2018-Jun-17 08:30N 38°28' W 123°35'4 8.4
2018-Jun-17 08:00N 38°24' W 123°32'4 8.5
2018-Jun-17 07:30N 38°21' W 123°29'4 8.0
2018-Jun-17 07:00N 38°17' W 123°26'4 7.9
2018-Jun-17 06:30N 38°14' W 123°24'4 7.7
2018-Jun-17 06:00N 38°11' W 123°21'4 7.9
2018-Jun-17 05:30N 38°08' W 123°18'4 8.7
2018-Jun-17 05:00N 38°04' W 123°14'4 8.7
2018-Jun-17 04:30N 38°01' W 123°11'5 9.3
2018-Jun-17 04:00N 37°58' W 123°06'510.0
2018-Jun-17 03:30N 37°55' W 123°01'510.0
2018-Jun-17 03:00N 37°53' W 122°55'510.3
2018-Jun-17 02:30N 37°50' W 122°50'610.8
2018-Jun-17 01:58N 37°47' W 122°43'4 9.4
2018-Jun-17 01:30N 37°46' W 122°38'611.9
2018-Jun-17 01:00N 37°48' W 122°31'611.5
2018-Jun-17 00:30N 37°49' W 122°24'611.1
2018-Jun-17 00:00N 37°45' W 122°20'0 0.3
2018-Jun-16 23:28N 37°45' W 122°20'0 0.0
2018-Jun-16 22:58N 37°45' W 122°20'0 0.1
2018-Jun-16 22:28N 37°45' W 122°20'0 0.0
2018-Jun-16 21:58N 37°45' W 122°20'0 0.0
2018-Jun-16 21:28N 37°45' W 122°20'0 0.0
2018-Jun-16 20:58N 37°45' W 122°20'0 0.0
2018-Jun-16 20:28N 37°45' W 122°20'0 0.0
2018-Jun-16 19:58N 37°45' W 122°20'0 0.1
2018-Jun-16 19:28N 37°45' W 122°20'0 0.1
2018-Jun-16 18:58N 37°45' W 122°20'0 0.0
2018-Jun-16 18:28N 37°45' W 122°20'0 0.0
2018-Jun-16 17:58N 37°45' W 122°20'0 0.0
2018-Jun-16 17:28N 37°45' W 122°20'0 0.0
2018-Jun-16 16:58N 37°45' W 122°20'0 0.0
2018-Jun-16 16:28N 37°45' W 122°20'0 0.0
2018-Jun-16 15:58N 37°45' W 122°20'0 0.0
2018-Jun-16 15:28N 37°45' W 122°20'0 0.0
2018-Jun-16 14:58N 37°45' W 122°20'0 0.0
2018-Jun-16 14:28N 37°45' W 122°20'0 0.0
2018-Jun-16 13:58N 37°45' W 122°20'0 0.0
2018-Jun-16 13:28N 37°45' W 122°20'0 0.0
2018-Jun-16 12:58N 37°45' W 122°20'0 0.0
2018-Jun-16 12:28N 37°45' W 122°20'0 0.0
2018-Jun-16 11:58N 37°45' W 122°20'0 0.0
2018-Jun-16 11:22N 37°45' W 122°20'0 0.0
2018-Jun-16 10:58N 37°45' W 122°20'0 0.0
2018-Jun-16 10:28N 37°45' W 122°20'0 0.0
2018-Jun-16 09:58N 37°45' W 122°20'0 0.0
2018-Jun-16 09:28N 37°45' W 122°20'0 0.0
2018-Jun-16 08:58N 37°45' W 122°20'0 0.0
2018-Jun-16 08:28N 37°45' W 122°20'0 0.0
2018-Jun-16 07:58N 37°45' W 122°20'0 0.0
2018-Jun-16 07:28N 37°45' W 122°20'0 0.0
2018-Jun-16 06:58N 37°45' W 122°20'0 0.0
2018-Jun-16 06:28N 37°45' W 122°20'0 0.0
2018-Jun-16 05:58N 37°45' W 122°20'0 0.0
2018-Jun-16 05:28N 37°45' W 122°20'0 0.0
2018-Jun-16 04:58N 37°45' W 122°20'0 0.1
2018-Jun-16 04:28N 37°45' W 122°20'0 0.1
2018-Jun-16 03:58N 37°45' W 122°20'0 0.1
2018-Jun-16 03:28N 37°45' W 122°20'0 0.0
2018-Jun-16 02:58N 37°45' W 122°20'0 0.0
2018-Jun-16 02:28N 37°45' W 122°20'0 0.0
2018-Jun-16 01:58N 37°45' W 122°20'0 0.0
2018-Jun-16 01:28N 37°45' W 122°20'0 0.0
2018-Jun-16 00:58N 37°45' W 122°20'0 0.0
2018-Jun-16 00:28N 37°45' W 122°20'0 0.0
2018-Jun-15 23:58N 37°45' W 122°20'0 0.1
2018-Jun-15 23:31N 37°45' W 122°20'0 0.0
2018-Jun-15 23:00N 37°45' W 122°20'0 0.1
2018-Jun-15 22:30N 37°45' W 122°20'0 0.1
2018-Jun-15 22:00N 37°45' W 122°20'0 0.1
2018-Jun-15 21:30N 37°45' W 122°20'0 0.0
2018-Jun-15 21:00N 37°45' W 122°20'0 0.0
2018-Jun-15 20:30N 37°45' W 122°20'0 0.0
2018-Jun-15 20:00N 37°45' W 122°20'0 0.0
2018-Jun-15 19:30N 37°45' W 122°20'0 0.0
2018-Jun-15 19:01N 37°45' W 122°20'0 0.0
2018-Jun-15 18:27N 37°45' W 122°20'0 0.0
2018-Jun-15 18:00N 37°45' W 122°20'0 0.0
2018-Jun-15 17:27N 37°45' W 122°20'0 0.0
2018-Jun-15 16:57N 37°45' W 122°20'0 0.0
2018-Jun-15 16:30N 37°45' W 122°20'0 0.1
2018-Jun-15 15:57N 37°45' W 122°20'0 0.0
2018-Jun-15 15:27N 37°45' W 122°20'0 0.0
2018-Jun-15 14:48N 37°45' W 122°20'0 0.0
2018-Jun-15 14:27N 37°45' W 122°20'0 0.0
2018-Jun-15 14:00N 37°45' W 122°20'0 0.0
2018-Jun-15 13:21N 37°45' W 122°20'0 0.0
2018-Jun-15 12:45N 37°45' W 122°20'0 0.0
2018-Jun-15 12:27N 37°45' W 122°20'0 0.0
2018-Jun-15 12:00N 37°45' W 122°20'0 0.0
2018-Jun-15 11:27N 37°45' W 122°20'0 0.0
2018-Jun-15 10:51N 37°45' W 122°20'0 0.0
2018-Jun-15 10:30N 37°45' W 122°20'0 0.0
2018-Jun-15 10:00N 37°45' W 122°20'0 0.0
2018-Jun-15 09:30N 37°45' W 122°20'0 0.0
2018-Jun-15 09:00N 37°45' W 122°20'0 0.0
2018-Jun-15 08:27N 37°45' W 122°20'0 0.1
2018-Jun-15 08:00N 37°45' W 122°20'0 0.0
2018-Jun-15 07:30N 37°45' W 122°20'0 0.0
2018-Jun-15 07:00N 37°45' W 122°20'0 0.1
2018-Jun-15 06:30N 37°45' W 122°20'4 8.1
2018-Jun-15 06:00N 37°48' W 122°23'510.9
2018-Jun-15 05:30N 37°53' W 122°26'5 9.4
2018-Jun-15 04:57N 37°58' W 122°26'510.4
2018-Jun-15 04:30N 38°02' W 122°22'611.3
2018-Jun-15 04:00N 38°04' W 122°15'2 0.1
2018-Jun-14 14:17N 38°05' W 122°15'1 4.3
2018-Jun-14 13:58N 38°04' W 122°15'4 8.5
2018-Jun-14 13:29N 38°03' W 122°20'5 8.8
2018-Jun-14 12:59N 38°01' W 122°24'4 7.8
2018-Jun-14 12:28N 37°57' W 122°27'4 7.9
2018-Jun-14 12:00N 37°53' W 122°26'510.5
2018-Jun-14 11:30N 37°49' W 122°23'713.3
2018-Jun-14 11:00N 37°43' W 122°20'1 0.9
2018-Jun-14 10:06N 37°42' W 122°19'0 0.0
2018-Jun-14 09:57N 37°42' W 122°19'0 0.0
2018-Jun-14 09:27N 37°42' W 122°19'0 0.2
2018-Jun-14 08:57N 37°42' W 122°19'0 0.0
2018-Jun-14 07:57N 37°42' W 122°19'0 0.0
2018-Jun-14 07:24N 37°42' W 122°19'0 0.0
2018-Jun-14 06:51N 37°42' W 122°19'0 0.0
2018-Jun-14 06:27N 37°42' W 122°19'0 0.0
2018-Jun-14 05:57N 37°42' W 122°19'0 0.0
2018-Jun-14 05:30N 37°42' W 122°19'0 0.0
2018-Jun-14 05:00N 37°42' W 122°19'0 0.0
2018-Jun-14 04:27N 37°42' W 122°19'0 0.0
2018-Jun-14 04:00N 37°42' W 122°19'0 0.0
2018-Jun-14 03:27N 37°42' W 122°19'0 0.0
2018-Jun-14 02:57N 37°42' W 122°19'0 0.0
2018-Jun-14 02:27N 37°42' W 122°19'0 0.0
2018-Jun-14 01:54N 37°42' W 122°19'0 0.0
2018-Jun-14 01:24N 37°42' W 122°19'0 0.1
2018-Jun-14 00:57N 37°42' W 122°19'0 0.0
2018-Jun-14 00:30N 37°42' W 122°19'0 0.0
2018-Jun-14 00:00N 37°42' W 122°19'0 0.1
2018-Jun-13 23:27N 37°42' W 122°19'0 0.0
2018-Jun-13 22:42N 37°42' W 122°19'0 0.0
2018-Jun-13 22:27N 37°42' W 122°19'0 0.1
2018-Jun-13 22:00N 37°42' W 122°19'0 0.0
2018-Jun-13 21:22N 37°42' W 122°19'0 0.1
2018-Jun-13 20:58N 37°42' W 122°19'0 0.1
2018-Jun-13 20:28N 37°42' W 122°19'0 0.0
2018-Jun-13 19:58N 37°42' W 122°19'0 0.0
2018-Jun-13 19:28N 37°42' W 122°19'0 0.0
2018-Jun-13 18:58N 37°42' W 122°19'0 0.0
2018-Jun-13 18:28N 37°42' W 122°19'0 0.1
2018-Jun-13 17:55N 37°42' W 122°19'0 0.1
2018-Jun-13 17:28N 37°42' W 122°19'0 0.0
2018-Jun-13 16:55N 37°42' W 122°19'0 0.0
2018-Jun-13 16:25N 37°42' W 122°19'0 0.0
2018-Jun-13 15:58N 37°42' W 122°19'0 0.0
2018-Jun-13 15:10N 37°42' W 122°19'0 0.0
2018-Jun-13 14:55N 37°42' W 122°19'0 0.0
2018-Jun-13 14:28N 37°42' W 122°19'0 0.0
2018-Jun-13 13:34N 37°42' W 122°19'0 0.0
2018-Jun-13 13:19N 37°42' W 122°19'0 0.0
2018-Jun-13 12:58N 37°42' W 122°19'0 0.0
2018-Jun-13 12:31N 37°42' W 122°19'0 0.0
2018-Jun-13 11:58N 37°42' W 122°19'0 0.0
2018-Jun-13 11:31N 37°42' W 122°19'0 0.0
2018-Jun-13 11:01N 37°42' W 122°19'0 0.0
2018-Jun-13 10:30N 37°42' W 122°19'0 0.0
2018-Jun-13 10:00N 37°42' W 122°19'0 0.0
2018-Jun-13 09:21N 37°42' W 122°19'0 0.0
2018-Jun-13 08:57N 37°42' W 122°19'0 0.0
2018-Jun-13 08:21N 37°42' W 122°19'0 0.0
2018-Jun-13 07:42N 37°42' W 122°19'0 0.0
2018-Jun-13 07:30N 37°42' W 122°19'0 0.1
2018-Jun-13 07:00N 37°42' W 122°19'0 0.1
2018-Jun-13 06:27N 37°42' W 122°19'0 0.0
2018-Jun-13 05:57N 37°42' W 122°19'0 0.0
2018-Jun-13 05:30N 37°42' W 122°19'0 0.0
2018-Jun-13 04:58N 37°42' W 122°19'0 0.0
2018-Jun-13 04:27N 37°42' W 122°19'0 0.1
2018-Jun-13 03:57N 37°42' W 122°19'0 0.0
2018-Jun-13 03:30N 37°42' W 122°19'0 0.0
2018-Jun-13 03:00N 37°42' W 122°19'0 0.0
2018-Jun-13 02:27N 37°42' W 122°19'0 0.0
2018-Jun-13 01:45N 37°42' W 122°19'0 0.0
2018-Jun-13 01:27N 37°42' W 122°19'0 0.0
2018-Jun-13 00:45N 37°42' W 122°19'0 0.1
2018-Jun-13 00:27N 37°42' W 122°19'0 0.1
2018-Jun-13 00:00N 37°42' W 122°19'0 0.0
2018-Jun-12 23:30N 37°42' W 122°19'0 0.0
2018-Jun-12 23:00N 37°42' W 122°19'0 0.0
2018-Jun-12 22:30N 37°42' W 122°19'0 0.0
2018-Jun-12 22:00N 37°42' W 122°19'0 0.0
2018-Jun-12 21:30N 37°42' W 122°19'0 0.0
2018-Jun-12 21:00N 37°42' W 122°19'0 0.1
2018-Jun-12 20:30N 37°42' W 122°19'0 0.0
2018-Jun-12 20:00N 37°42' W 122°19'0 0.0
2018-Jun-12 19:30N 37°42' W 122°19'0 0.0
2018-Jun-12 19:00N 37°42' W 122°19'0 0.1
2018-Jun-12 18:27N 37°42' W 122°19'0 0.1
2018-Jun-12 18:00N 37°42' W 122°19'0 0.0
2018-Jun-12 17:27N 37°42' W 122°19'0 0.1
2018-Jun-12 16:57N 37°42' W 122°19'0 0.0
2018-Jun-12 16:21N 37°42' W 122°19'0 0.0
2018-Jun-12 15:57N 37°42' W 122°19'0 0.0
2018-Jun-12 15:27N 37°42' W 122°19'0 0.1
2018-Jun-12 15:00N 37°42' W 122°19'0 0.1
2018-Jun-12 14:30N 37°42' W 122°19'0 0.0
2018-Jun-12 13:57N 37°42' W 122°19'0 0.0
2018-Jun-12 13:30N 37°42' W 122°19'0 0.0
2018-Jun-12 12:57N 37°42' W 122°19'0 0.0
2018-Jun-12 12:30N 37°42' W 122°19'0 0.0
2018-Jun-12 11:54N 37°42' W 122°19'0 0.0
2018-Jun-12 11:27N 37°42' W 122°19'0 0.0
2018-Jun-12 10:57N 37°42' W 122°19'0 0.0
2018-Jun-12 10:24N 37°42' W 122°19'0 0.0
2018-Jun-12 09:57N 37°42' W 122°19'0 0.0
2018-Jun-12 09:27N 37°42' W 122°19'0 0.0
2018-Jun-12 07:33N 37°42' W 122°19'0 0.0
2018-Jun-12 07:21N 37°42' W 122°19'0 0.0
2018-Jun-12 07:00N 37°42' W 122°19'0 0.0
2018-Jun-12 06:30N 37°42' W 122°19'0 0.0
2018-Jun-12 05:54N 37°42' W 122°19'0 0.0
2018-Jun-12 05:21N 37°42' W 122°19'0 0.0
2018-Jun-12 04:57N 37°42' W 122°19'0 0.0
2018-Jun-12 04:30N 37°42' W 122°19'0 0.0
2018-Jun-12 03:57N 37°42' W 122°19'0 0.0
2018-Jun-12 03:30N 37°42' W 122°19'0 0.0
2018-Jun-12 02:48N 37°42' W 122°19'0 0.0
2018-Jun-12 02:27N 37°42' W 122°19'0 0.0
2018-Jun-12 01:57N 37°42' W 122°19'0 0.0
2018-Jun-12 01:30N 37°42' W 122°19'0 0.0
2018-Jun-12 00:57N 37°42' W 122°19'0 0.0
2018-Jun-12 00:27N 37°42' W 122°19'0 0.0
2018-Jun-12 00:00N 37°42' W 122°19'0 0.0
2018-Jun-11 23:14N 37°42' W 122°19'0 0.2
2018-Jun-11 22:59N 37°42' W 122°19'0 0.0
2018-Jun-11 22:23N 37°42' W 122°19'0 0.0
2018-Jun-11 21:59N 37°42' W 122°19'0 0.0
2018-Jun-11 21:29N 37°42' W 122°19'0 0.0
2018-Jun-11 20:59N 37°42' W 122°19'0 0.1
2018-Jun-11 20:23N 37°42' W 122°19'0 0.0
2018-Jun-11 19:59N 37°42' W 122°19'0 0.1
2018-Jun-11 19:26N 37°42' W 122°19'0 0.0
2018-Jun-11 18:56N 37°42' W 122°19'0 0.0
2018-Jun-11 18:29N 37°42' W 122°19'0 0.0
2018-Jun-11 17:56N 37°42' W 122°19'0 0.0
2018-Jun-11 17:26N 37°42' W 122°19'0 0.0
2018-Jun-11 16:59N 37°42' W 122°19'0 0.0
2018-Jun-11 16:29N 37°42' W 122°19'0 0.0
2018-Jun-11 15:56N 37°42' W 122°19'0 0.0
2018-Jun-11 15:17N 37°42' W 122°19'0 0.0
2018-Jun-11 14:59N 37°42' W 122°19'0 0.0
2018-Jun-11 14:29N 37°42' W 122°19'0 0.0
2018-Jun-11 13:56N 37°42' W 122°19'0 0.0
2018-Jun-11 13:26N 37°42' W 122°19'0 0.0
2018-Jun-11 12:59N 37°42' W 122°19'0 0.0
2018-Jun-11 12:29N 37°42' W 122°19'0 0.0
2018-Jun-11 11:56N 37°42' W 122°19'0 0.0
2018-Jun-11 11:08N 37°42' W 122°19'0 0.0
2018-Jun-11 10:56N 37°42' W 122°19'0 0.0
2018-Jun-11 10:29N 37°42' W 122°19'0 0.0
2018-Jun-11 09:59N 37°42' W 122°19'0 0.0
2018-Jun-11 09:20N 37°42' W 122°19'0 0.0
2018-Jun-11 08:56N 37°42' W 122°19'0 0.0
2018-Jun-11 08:26N 37°42' W 122°19'0 0.0
2018-Jun-11 07:56N 37°42' W 122°19'0 0.0
2018-Jun-11 07:26N 37°42' W 122°19'0 0.0
2018-Jun-11 06:56N 37°42' W 122°19'0 0.1
2018-Jun-11 06:26N 37°42' W 122°19'0 0.0
2018-Jun-11 05:56N 37°42' W 122°19'0 0.0
2018-Jun-11 05:29N 37°42' W 122°19'0 0.0
2018-Jun-11 04:59N 37°42' W 122°19'0 0.0
2018-Jun-11 04:26N 37°42' W 122°19'0 0.0
2018-Jun-11 03:59N 37°42' W 122°19'0 0.0
2018-Jun-11 03:29N 37°42' W 122°19'0 0.0
2018-Jun-11 02:59N 37°42' W 122°19'0 0.0
2018-Jun-11 02:29N 37°42' W 122°19'0 0.0
2018-Jun-11 01:59N 37°42' W 122°19'0 0.0
2018-Jun-11 01:29N 37°42' W 122°19'0 0.0
2018-Jun-11 00:59N 37°42' W 122°19'0 0.0
2018-Jun-11 00:29N 37°42' W 122°19'0 0.0
2018-Jun-10 23:59N 37°42' W 122°19'0 0.1
2018-Jun-10 23:26N 37°42' W 122°19'0 0.0
2018-Jun-10 22:56N 37°42' W 122°19'0 0.1
2018-Jun-10 22:30N 37°42' W 122°19'1 2.4
2018-Jun-10 22:01N 37°43' W 122°19'5 9.7
2018-Jun-10 21:30N 37°48' W 122°22'5 9.6
2018-Jun-10 21:01N 37°52' W 122°25'611.5
2018-Jun-10 20:30N 37°57' W 122°27'611.2
2018-Jun-10 20:00N 38°02' W 122°22'510.2
2018-Jun-10 19:30N 38°04' W 122°16'2 3.6
2018-Jun-10 18:53N 38°06' W 122°16'0 0.3
2018-Jun-10 18:30N 38°06' W 122°16'0 0.0
2018-Jun-10 17:56N 38°06' W 122°16'0 0.1
2018-Jun-10 17:28N 38°06' W 122°16'0 0.1
2018-Jun-10 16:49N 38°06' W 122°16'1 1.7
2018-Jun-10 16:29N 38°05' W 122°15'2 4.2
2018-Jun-10 16:01N 38°04' W 122°17'610.8
2018-Jun-10 15:28N 38°01' W 122°23'511.1
2018-Jun-10 15:00N 37°57' W 122°27'4 8.9
2018-Jun-10 14:31N 37°53' W 122°25'9 8.8
2018-Jun-10 13:30N 37°47' W 122°34'510.5
2018-Jun-10 13:00N 37°45' W 122°40'3 6.5
2018-Jun-10 12:31N 37°42' W 122°40'3 5.9
2018-Jun-10 12:00N 37°39' W 122°39'3 5.8
2018-Jun-10 11:30N 37°36' W 122°39'3 5.4
2018-Jun-10 11:00N 37°33' W 122°39'3 6.0
2018-Jun-10 10:30N 37°30' W 122°39'3 5.7
2018-Jun-10 10:01N 37°27' W 122°39'3 5.7
2018-Jun-10 09:30N 37°25' W 122°39'3 5.8
2018-Jun-10 09:00N 37°22' W 122°39'3 6.2
2018-Jun-10 08:30N 37°18' W 122°39'3 5.6
2018-Jun-10 08:00N 37°16' W 122°39'3 5.9
2018-Jun-10 07:28N 37°13' W 122°36'1 2.0
2018-Jun-10 07:00N 37°13' W 122°36'1 1.5
2018-Jun-10 06:30N 37°13' W 122°36'1 1.4
2018-Jun-10 05:58N 37°14' W 122°36'0 0.9
2018-Jun-10 05:29N 37°14' W 122°36'0 0.6
2018-Jun-10 05:01N 37°15' W 122°37'0 0.3
2018-Jun-10 04:31N 37°15' W 122°37'0 0.6
2018-Jun-10 04:00N 37°15' W 122°37'0 0.8
2018-Jun-10 03:30N 37°15' W 122°37'3 5.5
2018-Jun-10 03:00N 37°13' W 122°37'4 8.2
2018-Jun-10 02:30N 37°08' W 122°36'117 8.2
2018-Jun-09 12:15N 35°24' W 121°33'2 7.3
2018-Jun-09 12:00N 35°22' W 121°32'4 7.3
2018-Jun-09 11:30N 35°19' W 121°29'4 7.4
2018-Jun-09 11:00N 35°16' W 121°27'4 7.3
2018-Jun-09 10:30N 35°13' W 121°25'4 7.6
2018-Jun-09 10:00N 35°09' W 121°22'4 7.3
2018-Jun-09 09:30N 35°06' W 121°20'3 6.1
2018-Jun-09 09:01N 35°04' W 121°18'3 6.3
2018-Jun-09 08:30N 35°01' W 121°16'3 6.7
2018-Jun-09 08:00N 34°58' W 121°14'3 6.9
2018-Jun-09 07:30N 34°55' W 121°12'4 7.2
2018-Jun-09 07:00N 34°52' W 121°10'4 7.7
2018-Jun-09 06:30N 34°49' W 121°08'4 7.7
2018-Jun-09 06:00N 34°45' W 121°05'4 7.6
2018-Jun-09 05:30N 34°42' W 121°03'4 7.4
2018-Jun-09 05:01N 34°39' W 121°00'4 7.4
2018-Jun-09 04:30N 34°36' W 120°58'  

Dump ship's entire track history